createdAt,value
2022-08-07T00:00:57.050Z,77.49
2022-08-07T00:02:40.681Z,78.00
2022-08-07T00:02:57.037Z,77.39
2022-08-07T00:03:56.048Z,75.85
2022-08-07T00:04:56.071Z,75.24
2022-08-07T00:05:55.999Z,76.16
2022-08-07T00:06:55.978Z,75.75
2022-08-07T00:07:58.492Z,74.22
2022-08-07T00:08:55.977Z,72.89
2022-08-07T00:10:19.023Z,73.40
2022-08-07T00:10:58.375Z,73.71
2022-08-07T00:11:58.758Z,73.91
2022-08-07T00:12:59.747Z,73.20
2022-08-07T00:13:56.876Z,72.69
2022-08-07T00:14:55.896Z,75.14
2022-08-07T00:15:55.869Z,75.24
2022-08-07T00:16:55.839Z,77.08
2022-08-07T00:17:55.819Z,77.32
2022-08-07T00:18:55.836Z,77.63
2022-08-07T00:20:01.473Z,77.42
2022-08-07T00:20:57.506Z,77.63
2022-08-07T00:22:02.323Z,77.22
2022-08-07T00:22:56.758Z,75.59
2022-08-07T00:23:55.759Z,73.54
2022-08-07T00:24:55.756Z,73.03
2022-08-07T00:26:00.363Z,74.05
2022-08-07T00:27:06.215Z,73.74
2022-08-07T00:27:56.745Z,76.40
2022-08-07T00:28:57.007Z,78.86
2022-08-07T00:29:55.666Z,80.19
2022-08-07T00:30:55.649Z,78.24
2022-08-07T00:31:55.638Z,77.01
2022-08-07T00:32:55.673Z,77.12
2022-08-07T00:33:55.612Z,75.59
2022-08-07T00:34:55.651Z,74.05
2022-08-07T00:35:55.580Z,73.98
2022-08-07T00:36:55.596Z,72.45
2022-08-07T00:37:55.579Z,73.88
2022-08-07T00:38:55.546Z,73.06
2022-08-07T00:39:55.584Z,72.14
2022-08-07T00:40:55.529Z,72.45
2022-08-07T00:42:01.846Z,71.73
2022-08-07T00:42:56.517Z,72.45
2022-08-07T00:44:01.747Z,73.68
2022-08-07T00:44:56.499Z,72.45
2022-08-07T00:45:55.459Z,72.75
2022-08-07T00:46:55.448Z,73.06
2022-08-07T00:48:08.814Z,76.23
2022-08-07T00:48:56.495Z,74.80
2022-08-07T00:50:20.545Z,76.13
2022-08-07T00:50:56.410Z,79.30
2022-08-07T00:51:57.196Z,78.79
2022-08-07T00:52:55.407Z,75.10
2022-08-07T00:53:55.992Z,73.06
2022-08-07T00:54:55.337Z,72.45
2022-08-07T00:56:00.678Z,75.10
2022-08-07T00:56:56.322Z,72.75
2022-08-07T00:57:56.341Z,71.83
2022-08-07T00:58:55.281Z,70.74
2022-08-07T00:59:55.287Z,74.73
2022-08-07T01:00:55.272Z,76.78
2022-08-07T01:01:57.806Z,76.06
2022-08-07T01:02:55.238Z,76.47
2022-08-07T01:04:00.231Z,78.31
2022-08-07T01:04:58.335Z,76.06
2022-08-07T01:05:55.189Z,75.45
2022-08-07T01:06:55.176Z,77.50
2022-08-07T01:07:55.263Z,77.60
2022-08-07T01:08:55.784Z,80.05
2022-08-07T01:10:06.016Z,79.44
2022-08-07T01:10:56.575Z,76.57
2022-08-07T01:12:27.578Z,75.24
2022-08-07T01:12:56.126Z,73.81
2022-08-07T01:13:55.995Z,72.69
2022-08-07T01:14:57.141Z,75.14
2022-08-07T01:16:05.727Z,76.98
2022-08-07T01:16:56.055Z,79.13
2022-08-07T01:17:55.057Z,80.88
2022-08-07T01:18:55.031Z,80.36
2022-08-07T01:19:55.009Z,79.64
2022-08-07T01:20:59.547Z,79.44
2022-08-07T01:21:55.334Z,79.79
2022-08-07T01:23:09.108Z,80.30
2022-08-07T01:23:55.966Z,79.38
2022-08-07T01:24:54.938Z,79.48
2022-08-07T01:25:56.307Z,81.01
2022-08-07T01:26:54.916Z,79.07
2022-08-07T01:27:54.908Z,76.72
2022-08-07T01:28:54.884Z,77.23
2022-08-07T01:29:54.879Z,78.05
2022-08-07T01:30:54.857Z,77.33
2022-08-07T01:31:54.846Z,76.40
2022-08-07T01:32:54.848Z,75.48
2022-08-07T01:33:55.498Z,77.12
2022-08-07T01:34:54.832Z,76.10
2022-08-07T01:36:06.062Z,75.48
2022-08-07T01:36:58.289Z,74.66
2022-08-07T01:37:54.809Z,73.44
2022-08-07T01:38:54.764Z,72.52
2022-08-07T01:39:54.841Z,72.61
2022-08-07T01:40:54.752Z,77.64
2022-08-07T01:42:07.519Z,78.35
2022-08-07T01:42:58.637Z,77.94
2022-08-07T01:43:54.705Z,78.25
2022-08-07T01:44:54.677Z,78.80
2022-08-07T01:45:54.783Z,80.95
2022-08-07T01:46:54.667Z,80.23
2022-08-07T01:48:19.710Z,77.87
2022-08-07T01:48:55.623Z,77.57
2022-08-07T01:49:54.888Z,78.28
2022-08-07T01:50:55.531Z,77.26
2022-08-07T01:52:03.833Z,76.14
2022-08-07T01:52:55.605Z,75.82
2022-08-07T01:54:08.798Z,75.52
2022-08-07T01:54:55.566Z,76.75
2022-08-07T01:55:54.566Z,74.90
2022-08-07T01:56:55.148Z,74.60
2022-08-07T01:58:06.112Z,75.11
2022-08-07T01:58:55.506Z,77.06
2022-08-07T01:59:54.574Z,78.39
2022-08-07T02:00:57.999Z,78.80
2022-08-07T02:02:01.617Z,77.77
2022-08-07T02:03:19.035Z,76.95
2022-08-07T02:03:55.489Z,75.42
2022-08-07T02:04:56.565Z,74.29
2022-08-07T02:06:00.836Z,76.95
2022-08-07T02:06:55.401Z,79.82
2022-08-07T02:07:54.433Z,77.16
2022-08-07T02:08:54.579Z,77.36
2022-08-07T02:09:58.771Z,76.65
2022-08-07T02:10:55.246Z,74.90
2022-08-07T02:12:03.572Z,74.70
2022-08-07T02:12:55.315Z,75.62
2022-08-07T02:13:57.316Z,77.16
2022-08-07T02:14:54.283Z,75.01
2022-08-07T02:15:54.282Z,78.39
2022-08-07T02:16:54.295Z,76.54
2022-08-07T02:17:54.287Z,75.35
2022-08-07T02:18:54.242Z,76.17
2022-08-07T02:20:07.525Z,74.63
2022-08-07T02:20:57.282Z,74.02
2022-08-07T02:21:56.705Z,72.68
2022-08-07T02:22:55.128Z,74.53
2022-08-07T02:23:54.173Z,74.22
2022-08-07T02:24:54.152Z,74.32
2022-08-07T02:26:30.698Z,74.43
2022-08-07T02:26:55.133Z,74.53
2022-08-07T02:27:54.130Z,78.74
2022-08-07T02:28:54.131Z,79.11
2022-08-07T02:29:54.990Z,77.57
2022-08-07T02:30:54.075Z,76.37
2022-08-07T02:31:54.625Z,75.56
2022-08-07T02:33:03.658Z,78.22
2022-08-07T02:34:03.583Z,76.58
2022-08-07T02:34:55.024Z,73.91
2022-08-07T02:36:30.672Z,75.15
2022-08-07T02:36:54.999Z,78.02
2022-08-07T02:37:53.999Z,79.75
2022-08-07T02:38:56.781Z,81.60
2022-08-07T02:40:02.324Z,80.54
2022-08-07T02:40:56.001Z,81.40
2022-08-07T02:41:54.484Z,78.42
2022-08-07T02:42:53.930Z,75.86
2022-08-07T02:43:53.912Z,78.83
2022-08-07T02:44:53.901Z,81.09
2022-08-07T02:45:58.876Z,79.45
2022-08-07T02:46:54.860Z,79.24
2022-08-07T02:47:53.865Z,82.32
2022-08-07T02:48:54.728Z,82.93
2022-08-07T02:49:58.784Z,81.50
2022-08-07T02:50:54.819Z,79.75
2022-08-07T02:51:53.817Z,77.29
2022-08-07T02:52:53.812Z,75.96
2022-08-07T02:53:54.819Z,74.22
2022-08-07T02:54:53.760Z,74.84
2022-08-07T02:56:03.291Z,73.19
2022-08-07T02:56:54.744Z,72.68
2022-08-07T02:57:53.744Z,71.97
2022-08-07T02:58:54.253Z,72.48
2022-08-07T02:59:55.148Z,75.04
2022-08-07T03:00:54.718Z,74.84
2022-08-07T03:01:55.481Z,73.91
2022-08-07T03:02:55.127Z,73.71
2022-08-07T03:03:53.656Z,72.78
2022-08-07T03:04:53.640Z,73.71
2022-08-07T03:05:53.802Z,72.38
2022-08-07T03:06:53.619Z,72.17
2022-08-07T03:08:06.835Z,72.27
2022-08-07T03:08:54.577Z,76.37
2022-08-07T03:09:53.589Z,73.71
2022-08-07T03:10:53.560Z,72.07
2022-08-07T03:11:57.992Z,71.39
2022-08-07T03:12:54.533Z,72.10
2022-08-07T03:13:57.709Z,72.82
2022-08-07T03:14:54.502Z,72.72
2022-08-07T03:15:56.680Z,74.77
2022-08-07T03:16:54.508Z,75.59
2022-08-07T03:17:54.631Z,76.20
2022-08-07T03:18:53.448Z,76.20
2022-08-07T03:19:54.608Z,76.31
2022-08-07T03:20:53.428Z,76.10
2022-08-07T03:21:53.420Z,76.92
2022-08-07T03:22:53.406Z,75.38
2022-08-07T03:24:20.820Z,77.13
2022-08-07T03:24:54.406Z,78.87
2022-08-07T03:25:58.359Z,79.08
2022-08-07T03:26:58.306Z,77.74
2022-08-07T03:28:09.024Z,77.84
2022-08-07T03:28:54.335Z,76.31
2022-08-07T03:29:53.304Z,77.23
2022-08-07T03:30:53.286Z,77.64
2022-08-07T03:31:53.288Z,76.72
2022-08-07T03:32:58.754Z,75.59
2022-08-07T03:33:54.261Z,74.36
2022-08-07T03:35:16.980Z,73.23
2022-08-07T03:35:54.274Z,78.46
2022-08-07T03:36:53.789Z,80.31
2022-08-07T03:37:55.078Z,78.16
2022-08-07T03:38:53.187Z,78.05
2022-08-07T03:39:59.464Z,78.46
2022-08-07T03:40:57.358Z,80.24
2022-08-07T03:41:53.330Z,79.22
2022-08-07T03:42:53.127Z,77.26
2022-08-07T03:43:57.487Z,75.62
2022-08-07T03:44:57.820Z,74.91
2022-08-07T03:45:54.123Z,72.24
2022-08-07T03:47:11.300Z,75.42
2022-08-07T03:47:54.077Z,77.98
2022-08-07T03:49:03.067Z,77.06
2022-08-07T03:49:54.043Z,74.91
2022-08-07T03:50:57.778Z,77.58
2022-08-07T03:51:55.126Z,77.37
2022-08-07T03:52:54.000Z,77.17
2022-08-07T03:54:32.990Z,76.04
2022-08-07T03:54:57.396Z,78.19
2022-08-07T03:56:04.100Z,79.42
2022-08-07T03:57:03.387Z,78.19
2022-08-07T03:58:33.518Z,78.09
2022-08-07T03:59:07.889Z,77.58
2022-08-07T04:00:01.660Z,75.11
2022-08-07T04:00:56.999Z,74.40
2022-08-07T04:01:53.957Z,73.98
2022-08-07T04:02:52.864Z,74.70
2022-08-07T04:03:55.161Z,74.08
2022-08-07T04:04:52.846Z,76.14
2022-08-07T04:05:52.843Z,76.45
2022-08-07T04:06:54.078Z,76.34
2022-08-07T04:07:52.805Z,74.49
2022-08-07T04:08:52.832Z,72.34
2022-08-07T04:09:52.812Z,71.93
2022-08-07T04:10:53.912Z,73.36
2022-08-07T04:12:24.267Z,74.19
2022-08-07T04:12:53.743Z,71.93
2022-08-07T04:14:33.079Z,71.62
2022-08-07T04:14:53.710Z,75.52
2022-08-07T04:15:52.706Z,78.81
2022-08-07T04:16:58.499Z,78.70
2022-08-07T04:18:58.078Z,79.52
2022-08-07T04:18:59.067Z,79.11
2022-08-07T04:19:54.415Z,78.50
2022-08-07T04:20:54.645Z,79.49
2022-08-07T04:21:59.104Z,82.26
2022-08-07T04:23:01.756Z,82.46
2022-08-07T04:24:07.296Z,81.95
2022-08-07T04:24:53.575Z,80.41
2022-08-07T04:25:52.578Z,79.59
2022-08-07T04:26:52.562Z,79.80
2022-08-07T04:27:59.302Z,78.05
2022-08-07T04:28:53.527Z,77.03
2022-08-07T04:30:01.608Z,79.08
2022-08-07T04:30:56.711Z,78.67
2022-08-07T04:32:02.984Z,76.62
2022-08-07T04:32:58.429Z,74.98
2022-08-07T04:33:54.992Z,74.26
2022-08-07T04:34:52.465Z,78.53
2022-08-07T04:35:53.997Z,78.63
2022-08-07T04:36:52.445Z,76.07
2022-08-07T04:38:03.587Z,75.35
2022-08-07T04:38:53.406Z,74.94
2022-08-07T04:39:52.439Z,74.94
2022-08-07T04:40:56.786Z,79.55
2022-08-07T04:41:52.364Z,81.77
2022-08-07T04:42:52.544Z,82.69
2022-08-07T04:44:11.964Z,82.18
2022-08-07T04:44:54.394Z,81.05
2022-08-07T04:46:01.371Z,80.44
2022-08-07T04:47:03.912Z,83.10
2022-08-07T04:48:01.037Z,84.80
2022-08-07T04:48:53.265Z,85.52
2022-08-07T04:50:03.476Z,85.22
2022-08-07T04:50:54.012Z,86.91
2022-08-07T04:51:52.247Z,86.22
2022-08-07T04:52:52.833Z,84.24
2022-08-07T04:54:05.474Z,83.00
2022-08-07T04:54:53.191Z,81.18
2022-08-07T04:58:11.092Z,75.91
2022-08-07T04:58:14.419Z,78.63
2022-08-07T04:58:14.864Z,74.72
2022-08-07T05:00:07.897Z,73.13
2022-08-07T05:00:09.732Z,71.23
2022-08-07T05:00:53.130Z,69.54
2022-08-07T05:01:52.129Z,68.26
2022-08-07T05:02:52.092Z,67.29
2022-08-07T05:04:06.392Z,65.81
2022-08-07T05:04:53.055Z,65.84
2022-08-07T05:05:57.243Z,64.17
2022-08-07T05:06:53.447Z,62.70
2022-08-07T05:07:52.065Z,61.46
2022-08-07T05:09:00.688Z,60.80
2022-08-07T05:09:53.011Z,59.33
2022-08-07T05:10:58.344Z,58.90
2022-08-07T05:11:58.165Z,57.94
2022-08-07T05:12:55.244Z,56.81
2022-08-07T05:14:54.136Z,56.38
2022-08-07T05:15:04.541Z,55.43
2022-08-07T05:15:53.593Z,54.70
2022-08-07T05:16:52.621Z,53.77
2022-08-07T05:17:55.268Z,52.42
2022-08-07T05:18:51.883Z,52.00
2022-08-07T05:19:51.863Z,51.17
2022-08-07T05:20:51.838Z,50.62
2022-08-07T05:21:58.925Z,49.30
2022-08-07T05:22:52.972Z,48.88
2022-08-07T05:23:51.813Z,48.46
2022-08-07T05:24:51.804Z,48.61
2022-08-07T05:26:10.882Z,47.29
2022-08-07T05:26:52.787Z,47.07
2022-08-07T05:28:16.043Z,46.05
2022-08-07T05:28:52.746Z,45.93
2022-08-07T05:29:52.122Z,45.51
2022-08-07T05:30:52.264Z,44.20
2022-08-07T05:31:52.966Z,44.07
2022-08-07T05:32:51.692Z,42.57
2022-08-07T05:34:04.791Z,42.96
2022-08-07T05:34:52.667Z,42.92
2022-08-07T05:35:51.710Z,42.21
2022-08-07T05:36:52.987Z,40.70
2022-08-07T05:38:08.739Z,40.88
2022-08-07T05:38:59.954Z,41.06
2022-08-07T05:40:07.157Z,40.64
2022-08-07T05:40:52.661Z,40.45
2022-08-07T05:42:02.238Z,39.83
2022-08-07T05:42:56.347Z,39.11
2022-08-07T05:44:08.298Z,39.30
2022-08-07T05:45:04.512Z,38.29
2022-08-07T05:45:52.573Z,37.78
2022-08-07T05:46:51.520Z,37.47
2022-08-07T05:48:02.077Z,36.94
2022-08-07T05:48:58.128Z,35.46
2022-08-07T05:49:52.470Z,36.15
2022-08-07T05:50:51.457Z,35.35
2022-08-07T05:51:51.458Z,36.02
2022-08-07T05:52:51.437Z,34.92
2022-08-07T05:54:09.727Z,34.61
2022-08-07T05:54:55.872Z,35.18
2022-08-07T05:56:03.386Z,34.30
2022-08-07T05:56:52.443Z,34.20
2022-08-07T05:57:51.380Z,34.18
2022-08-07T05:58:52.858Z,33.98
2022-08-07T05:59:57.903Z,33.59
2022-08-07T06:00:52.343Z,33.18
2022-08-07T06:01:51.420Z,33.08
2022-08-07T06:02:51.310Z,32.40
2022-08-07T06:03:57.283Z,33.17
2022-08-07T06:04:52.283Z,33.05
2022-08-07T06:05:56.524Z,32.76
2022-08-07T06:06:56.784Z,31.57
2022-08-07T06:08:12.339Z,31.94
2022-08-07T06:08:52.233Z,31.34
2022-08-07T06:10:05.764Z,30.13
2022-08-07T06:10:54.865Z,30.51
2022-08-07T06:11:51.207Z,29.53
2022-08-07T06:12:51.181Z,30.51
2022-08-07T06:14:12.538Z,30.22
2022-08-07T06:14:52.163Z,29.83
2022-08-07T06:15:51.161Z,29.73
2022-08-07T06:16:55.800Z,29.63
2022-08-07T06:17:55.131Z,29.53
2022-08-07T06:18:51.740Z,30.22
2022-08-07T06:20:03.286Z,29.73
2022-08-07T06:22:15.241Z,28.74
2022-08-07T06:22:15.858Z,29.83
2022-08-07T06:23:02.326Z,29.80
2022-08-07T06:24:46.378Z,27.65
2022-08-07T06:24:57.723Z,29.11
2022-08-07T06:25:54.412Z,29.49
2022-08-07T06:26:52.036Z,28.69
2022-08-07T06:28:01.467Z,28.09
2022-08-07T06:28:52.887Z,27.90
2022-08-07T06:29:50.966Z,26.91
2022-08-07T06:30:52.862Z,26.92
2022-08-07T06:31:50.977Z,27.59
2022-08-07T06:32:50.938Z,27.58
2022-08-07T06:33:50.915Z,26.30
2022-08-07T06:34:51.002Z,26.98
2022-08-07T06:36:06.682Z,25.32
2022-08-07T06:36:52.548Z,25.91
2022-08-07T06:37:53.010Z,24.94
2022-08-07T06:38:59.248Z,26.69
2022-08-07T06:40:16.777Z,25.62
2022-08-07T06:40:52.011Z,23.97
2022-08-07T06:42:01.616Z,25.42
2022-08-07T06:42:51.830Z,24.24
2022-08-07T06:43:50.796Z,24.83
2022-08-07T06:44:51.808Z,24.72
2022-08-07T06:45:50.784Z,25.10
2022-08-07T06:46:53.829Z,24.51
2022-08-07T06:47:58.922Z,23.93
2022-08-07T06:48:51.739Z,23.16
2022-08-07T06:49:58.635Z,23.74
2022-08-07T06:50:51.727Z,23.35
2022-08-07T06:51:50.719Z,23.94
2022-08-07T06:52:52.990Z,23.16
2022-08-07T06:55:33.378Z,24.82
2022-08-07T06:55:34.246Z,23.73
2022-08-07T06:56:00.105Z,23.15
2022-08-07T06:56:51.691Z,21.79
2022-08-07T06:57:56.378Z,22.76
2022-08-07T07:00:12.385Z,22.59
2022-08-07T07:00:12.928Z,22.48
2022-08-07T07:00:52.795Z,22.88
2022-08-07T07:01:51.079Z,23.27
2022-08-07T07:02:54.039Z,23.18
2022-08-07T07:03:55.151Z,23.99
2022-08-07T07:04:54.720Z,24.67
2022-08-07T07:06:03.253Z,23.79
2022-08-07T07:07:00.131Z,23.90
2022-08-07T07:07:59.604Z,24.19
2022-08-07T07:08:51.537Z,24.49
2022-08-07T07:09:50.784Z,24.38
2022-08-07T07:10:56.673Z,23.79
2022-08-07T07:12:07.516Z,24.76
2022-08-07T07:12:53.518Z,24.35
2022-08-07T07:13:58.091Z,22.69
2022-08-07T07:14:51.451Z,22.89
2022-08-07T07:15:51.870Z,24.65
2022-08-07T07:16:51.178Z,24.63
2022-08-07T07:17:52.229Z,23.55
2022-08-07T07:18:50.384Z,24.41
2022-08-07T07:19:57.774Z,23.33
2022-08-07T07:20:51.367Z,22.83
2022-08-07T07:22:05.348Z,22.65
2022-08-07T07:24:06.409Z,23.73
2022-08-07T07:24:08.734Z,23.62
2022-08-07T07:24:58.390Z,23.83
2022-08-07T07:26:32.443Z,23.62
2022-08-07T07:26:52.253Z,22.65
2022-08-07T07:27:55.487Z,23.52
2022-08-07T07:29:56.608Z,23.43
2022-08-07T07:30:09.182Z,23.82
2022-08-07T07:30:51.264Z,23.90
2022-08-07T07:31:50.218Z,23.70
2022-08-07T07:32:50.254Z,22.74
2022-08-07T07:33:56.474Z,24.39
2022-08-07T07:34:51.189Z,25.46
2022-08-07T07:36:04.605Z,23.61
2022-08-07T07:36:54.004Z,22.92
2022-08-07T07:38:02.926Z,23.10
2022-08-07T07:38:51.131Z,22.44
2022-08-07T07:39:54.993Z,23.79
2022-08-07T07:40:51.121Z,22.52
2022-08-07T07:41:50.351Z,22.99
2022-08-07T07:42:54.333Z,22.12
2022-08-07T07:44:16.762Z,22.90
2022-08-07T07:44:51.070Z,22.60
2022-08-07T07:46:36.936Z,22.02
2022-08-07T07:46:57.283Z,23.08
2022-08-07T07:47:52.758Z,21.44
2022-08-07T07:48:50.053Z,22.42
2022-08-07T07:50:35.668Z,21.95
2022-08-07T07:50:51.008Z,22.44
2022-08-07T07:51:58.531Z,22.93
2022-08-07T07:52:50.964Z,24.68
2022-08-07T07:53:52.050Z,22.82
2022-08-07T07:54:51.500Z,22.44
2022-08-07T07:55:56.192Z,22.45
2022-08-07T07:56:50.923Z,23.44
2022-08-07T07:57:53.149Z,23.07
2022-08-07T07:58:50.627Z,24.26
2022-08-07T07:59:52.604Z,23.77
2022-08-07T08:00:54.057Z,23.77
2022-08-07T08:02:03.296Z,24.26
2022-08-07T08:03:04.916Z,24.07
2022-08-07T08:04:05.955Z,24.07
2022-08-07T08:04:50.911Z,24.76
2022-08-07T08:05:54.372Z,24.06
2022-08-07T08:06:52.202Z,24.35
2022-08-07T08:07:59.892Z,24.15
2022-08-07T08:08:50.779Z,23.56
2022-08-07T08:09:52.476Z,23.56
2022-08-07T08:10:50.800Z,23.18
2022-08-07T08:12:02.245Z,23.10
2022-08-07T08:12:59.231Z,23.40
2022-08-07T08:13:54.754Z,24.28
2022-08-07T08:14:49.715Z,23.89
2022-08-07T08:15:59.118Z,23.89
2022-08-07T08:16:50.936Z,23.69
2022-08-07T08:18:17.943Z,24.28
2022-08-07T08:18:50.666Z,24.17
2022-08-07T08:20:17.733Z,23.10
2022-08-07T08:20:50.639Z,23.49
2022-08-07T08:21:55.375Z,24.46
2022-08-07T08:22:54.097Z,23.57
2022-08-07T08:23:50.611Z,23.86
2022-08-07T08:24:51.310Z,23.86
2022-08-07T08:25:50.584Z,23.39
2022-08-07T08:26:50.489Z,22.62
2022-08-07T08:27:56.475Z,23.80
2022-08-07T08:28:50.637Z,23.23
2022-08-07T08:29:55.594Z,23.24
2022-08-07T08:30:50.963Z,24.80
2022-08-07T08:31:58.864Z,25.27
2022-08-07T08:32:50.493Z,24.01
2022-08-07T08:33:55.563Z,24.69
2022-08-07T08:34:50.455Z,24.40
2022-08-07T08:35:50.009Z,25.57
2022-08-07T08:36:49.433Z,26.04
2022-08-07T08:38:01.311Z,23.11
2022-08-07T08:38:50.407Z,23.69
2022-08-07T08:39:54.994Z,23.41
2022-08-07T08:40:50.395Z,23.62
2022-08-07T08:41:57.834Z,24.21
2022-08-07T08:42:51.562Z,22.85
2022-08-07T08:43:58.722Z,23.72
2022-08-07T08:44:50.335Z,21.85
2022-08-07T08:45:59.562Z,22.53
2022-08-07T08:46:50.307Z,22.74
2022-08-07T08:47:52.118Z,22.16
2022-08-07T08:48:50.900Z,22.46
2022-08-07T08:50:04.814Z,23.54
2022-08-07T08:50:51.677Z,23.24
2022-08-07T08:52:14.437Z,23.52
2022-08-07T08:52:53.743Z,22.56
2022-08-07T08:53:49.234Z,23.72
2022-08-07T08:54:49.207Z,22.16
2022-08-07T08:55:53.812Z,23.24
2022-08-07T08:56:50.187Z,22.47
2022-08-07T08:57:49.178Z,23.93
2022-08-07T08:58:50.658Z,23.93
2022-08-07T08:59:50.366Z,23.54
2022-08-07T09:00:52.629Z,23.15
2022-08-07T09:01:49.712Z,22.19
2022-08-07T09:02:49.559Z,21.03
2022-08-07T09:03:52.631Z,20.64
2022-08-07T09:04:49.098Z,21.72
2022-08-07T09:05:49.092Z,23.00
2022-08-07T09:06:49.076Z,22.81
2022-08-07T09:07:57.693Z,23.50
2022-08-07T09:08:50.032Z,23.59
2022-08-07T09:09:49.023Z,25.06
2022-08-07T09:10:50.037Z,23.87
2022-08-07T09:11:55.553Z,22.99
2022-08-07T09:12:53.124Z,23.76
2022-08-07T09:13:49.341Z,22.50
2022-08-07T09:14:50.586Z,23.38
2022-08-07T09:16:25.686Z,23.77
2022-08-07T09:16:49.950Z,23.88
2022-08-07T09:17:59.596Z,25.26
2022-08-07T09:18:53.444Z,22.51
2022-08-07T09:19:53.487Z,21.34
2022-08-07T09:20:58.042Z,22.13
2022-08-07T09:22:10.084Z,23.03
2022-08-07T09:24:32.198Z,23.54
2022-08-07T09:24:33.685Z,23.74
2022-08-07T09:24:59.775Z,25.12
2022-08-07T09:25:53.480Z,23.95
2022-08-07T09:26:51.089Z,23.95
2022-08-07T09:27:59.884Z,24.74
2022-08-07T09:30:00.734Z,25.13
2022-08-07T09:30:06.308Z,25.52
2022-08-07T09:30:54.585Z,24.93
2022-08-07T09:31:49.743Z,26.41
2022-08-07T09:32:48.733Z,24.25
2022-08-07T09:33:57.740Z,24.44
2022-08-07T09:34:54.041Z,24.33
2022-08-07T09:36:04.798Z,25.12
2022-08-07T09:36:49.984Z,25.51
2022-08-07T09:37:54.051Z,23.55
2022-08-07T09:38:50.151Z,24.04
2022-08-07T09:39:54.266Z,24.73
2022-08-07T09:40:50.171Z,26.20
2022-08-07T09:41:58.638Z,25.12
2022-08-07T09:42:50.371Z,25.23
2022-08-07T09:44:06.000Z,25.44
2022-08-07T09:47:24.969Z,24.65
2022-08-07T09:47:49.987Z,25.08
2022-08-07T09:47:50.581Z,24.17
2022-08-07T09:48:01.681Z,24.30
2022-08-07T09:49:59.701Z,25.68
2022-08-07T09:50:01.045Z,25.39
2022-08-07T09:50:51.414Z,24.52
2022-08-07T09:52:09.972Z,26.19
2022-08-07T09:52:51.824Z,27.86
2022-08-07T09:53:56.118Z,26.97
2022-08-07T09:54:49.459Z,27.56
2022-08-07T09:56:04.741Z,28.52
2022-08-07T09:56:49.441Z,24.97
2022-08-07T09:57:48.435Z,25.46
2022-08-07T09:58:48.769Z,24.79
2022-08-07T10:00:00.754Z,25.28
2022-08-07T10:00:50.560Z,26.56
2022-08-07T10:01:51.326Z,24.80
2022-08-07T10:02:55.072Z,24.34
2022-08-07T10:04:05.163Z,26.34
2022-08-07T10:04:53.399Z,26.73
2022-08-07T10:05:59.407Z,29.09
2022-08-07T10:06:55.716Z,25.93
2022-08-07T10:07:53.056Z,28.88
2022-08-07T10:08:49.538Z,26.59
2022-08-07T10:10:01.050Z,26.01
2022-08-07T10:11:17.027Z,26.30
2022-08-07T10:12:02.101Z,27.37
2022-08-07T10:12:53.309Z,26.98
2022-08-07T10:14:00.458Z,28.54
2022-08-07T10:14:55.142Z,26.18
2022-08-07T10:15:49.185Z,25.09
2022-08-07T10:16:48.230Z,25.88
2022-08-07T10:18:01.804Z,24.60
2022-08-07T10:18:49.202Z,24.81
2022-08-07T10:19:48.153Z,26.29
2022-08-07T10:20:50.194Z,25.99
2022-08-07T10:22:16.332Z,26.48
2022-08-07T10:22:50.820Z,26.78
2022-08-07T10:24:05.620Z,26.48
2022-08-07T10:24:49.086Z,25.99
2022-08-07T10:25:48.080Z,26.30
2022-08-07T10:26:53.349Z,27.09
2022-08-07T10:27:48.038Z,27.09
2022-08-07T10:28:49.392Z,26.58
2022-08-07T10:29:51.757Z,26.39
2022-08-07T10:30:49.018Z,25.89
2022-08-07T10:31:49.635Z,26.19
2022-08-07T10:32:53.306Z,25.90
2022-08-07T10:34:14.471Z,26.59
2022-08-07T10:34:48.998Z,27.19
2022-08-07T10:35:57.514Z,26.40
2022-08-07T10:36:48.942Z,26.50
2022-08-07T10:38:00.248Z,27.19
2022-08-07T10:38:49.961Z,29.75
2022-08-07T10:40:03.363Z,29.14
2022-08-07T10:40:48.867Z,29.83
2022-08-07T10:41:54.507Z,29.72
2022-08-07T10:42:50.000Z,28.64
2022-08-07T10:43:47.859Z,28.34
2022-08-07T10:44:47.828Z,28.54
2022-08-07T10:45:57.995Z,26.67
2022-08-07T10:46:48.790Z,27.66
2022-08-07T10:47:53.929Z,27.67
2022-08-07T10:48:48.813Z,29.92
2022-08-07T10:49:50.795Z,26.47
2022-08-07T10:50:50.128Z,25.99
2022-08-07T10:52:01.801Z,28.36
2022-08-07T10:52:51.452Z,30.32
2022-08-07T10:53:47.717Z,29.74
2022-08-07T10:54:53.366Z,28.16
2022-08-07T10:55:48.693Z,28.16
2022-08-07T10:56:47.662Z,29.44
2022-08-07T10:57:56.033Z,28.34
2022-08-07T10:58:59.424Z,27.85
2022-08-07T10:59:48.672Z,27.36
2022-08-07T11:00:50.165Z,26.97
2022-08-07T11:01:51.515Z,28.24
2022-08-07T11:02:49.300Z,26.67
2022-08-07T11:03:52.804Z,26.97
2022-08-07T11:04:48.585Z,25.29
2022-08-07T11:05:50.554Z,25.10
2022-08-07T11:06:47.570Z,25.70
2022-08-07T11:07:58.550Z,26.29
2022-08-07T11:08:48.526Z,25.10
2022-08-07T11:10:07.341Z,27.47
2022-08-07T11:10:52.383Z,28.36
2022-08-07T11:11:51.967Z,27.08
2022-08-07T11:12:49.110Z,28.36
2022-08-07T11:14:43.503Z,27.27
2022-08-07T11:14:57.493Z,28.08
2022-08-07T11:15:54.561Z,27.28
2022-08-07T11:16:52.750Z,26.20
2022-08-07T11:17:48.722Z,26.70
2022-08-07T11:18:50.734Z,26.30
2022-08-07T11:19:47.397Z,26.10
2022-08-07T11:20:47.367Z,27.40
2022-08-07T11:21:47.379Z,28.97
2022-08-07T11:22:47.344Z,27.40
2022-08-07T11:23:48.457Z,27.40
2022-08-07T11:24:47.355Z,28.58
2022-08-07T11:25:49.916Z,26.02
2022-08-07T11:26:50.120Z,25.13
2022-08-07T11:28:01.410Z,25.93
2022-08-07T11:28:55.257Z,27.31
2022-08-07T11:30:09.963Z,27.31
2022-08-07T11:30:48.256Z,29.07
2022-08-07T11:31:47.230Z,27.89
2022-08-07T11:32:47.287Z,27.00
2022-08-07T11:33:55.397Z,28.09
2022-08-07T11:34:48.198Z,25.23
2022-08-07T11:35:59.639Z,28.28
2022-08-07T11:36:49.654Z,29.94
2022-08-07T11:38:09.954Z,28.77
2022-08-07T11:38:50.668Z,27.67
2022-08-07T11:40:01.006Z,26.09
2022-08-07T11:40:49.807Z,28.95
2022-08-07T11:42:02.393Z,29.14
2022-08-07T11:42:48.112Z,28.06
2022-08-07T11:44:11.748Z,27.76
2022-08-07T11:44:52.493Z,27.08
2022-08-07T11:45:53.089Z,26.01
2022-08-07T11:46:48.668Z,28.77
2022-08-07T11:47:56.438Z,25.02
2022-08-07T11:49:28.600Z,24.84
2022-08-07T11:50:11.406Z,26.81
2022-08-07T11:50:57.356Z,28.78
2022-08-07T11:51:47.996Z,26.31
2022-08-07T11:52:46.963Z,27.69
2022-08-07T11:54:00.656Z,27.10
2022-08-07T11:54:54.521Z,24.63
2022-08-07T11:56:14.045Z,24.84
2022-08-07T11:56:53.160Z,26.61
2022-08-07T11:57:58.494Z,25.52
2022-08-07T11:58:49.595Z,26.90
2022-08-07T12:00:11.953Z,25.43
2022-08-07T12:00:53.637Z,24.93
2022-08-07T12:02:00.815Z,28.50
2022-08-07T12:02:52.710Z,27.91
2022-08-07T12:03:47.947Z,27.40
2022-08-07T12:04:46.824Z,25.23
2022-08-07T12:05:48.865Z,26.41
2022-08-07T12:06:56.214Z,25.73
2022-08-07T12:07:53.637Z,28.00
2022-08-07T12:08:47.794Z,27.70
2022-08-07T12:09:46.810Z,26.31
2022-08-07T12:10:46.737Z,26.23
2022-08-07T12:12:09.122Z,25.72
2022-08-07T12:12:47.707Z,26.31
2022-08-07T12:13:47.715Z,26.61
2022-08-07T12:14:55.761Z,26.51
2022-08-07T12:16:06.733Z,28.48
2022-08-07T12:16:47.661Z,28.97
2022-08-07T12:17:58.809Z,27.59
2022-08-07T12:18:47.666Z,26.70
2022-08-07T12:20:03.294Z,27.28
2022-08-07T12:20:49.279Z,27.78
2022-08-07T12:21:56.007Z,25.81
2022-08-07T12:22:58.446Z,28.47
2022-08-07T12:24:06.789Z,25.40
2022-08-07T12:24:52.411Z,27.96
2022-08-07T12:26:22.141Z,25.60
2022-08-07T12:26:49.233Z,27.57
2022-08-07T12:28:08.979Z,24.41
2022-08-07T12:28:49.729Z,26.30
2022-08-07T12:29:47.515Z,26.79
2022-08-07T12:30:47.071Z,28.17
2022-08-07T12:32:01.547Z,24.82
2022-08-07T12:32:49.120Z,26.59
2022-08-07T12:33:56.534Z,24.81
2022-08-07T12:34:49.393Z,24.02
2022-08-07T12:35:48.060Z,26.48
2022-08-07T12:36:49.586Z,24.82
2022-08-07T12:38:11.596Z,25.51
2022-08-07T12:38:57.488Z,29.06
2022-08-07T12:39:50.498Z,24.05
2022-08-07T12:40:48.612Z,26.13
2022-08-07T12:41:51.487Z,25.14
2022-08-07T12:42:55.192Z,27.33
2022-08-07T12:44:02.255Z,29.09
2022-08-07T12:44:47.322Z,27.51
2022-08-07T12:45:50.289Z,26.13
2022-08-07T12:46:47.300Z,27.59
2022-08-07T12:47:46.277Z,26.51
2022-08-07T12:48:52.937Z,26.12
2022-08-07T12:49:51.255Z,25.90
2022-08-07T12:50:48.945Z,25.72
2022-08-07T12:51:51.340Z,26.81
2022-08-07T12:52:47.217Z,27.50